createdAt,value
2022-12-03T00:00:46.715Z,13.43
2022-12-03T00:03:14.032Z,12.77
2022-12-03T00:05:48.195Z,12.97
2022-12-03T00:08:16.157Z,13.00
2022-12-03T00:10:43.377Z,14.80
2022-12-03T00:13:10.669Z,13.50
2022-12-03T00:15:37.999Z,14.00
2022-12-03T00:18:05.227Z,13.70
2022-12-03T00:20:32.318Z,14.37
2022-12-03T00:22:59.486Z,14.87
2022-12-03T00:25:26.587Z,16.37
2022-12-03T00:27:53.724Z,15.33
2022-12-03T00:30:20.906Z,15.17
2022-12-03T00:32:48.006Z,15.07
2022-12-03T00:35:15.117Z,15.33
2022-12-03T00:37:42.535Z,15.20
2022-12-03T00:40:10.864Z,15.40
2022-12-03T00:42:38.024Z,15.63
2022-12-03T00:45:05.584Z,14.90
2022-12-03T00:47:32.700Z,14.77
2022-12-03T00:50:00.043Z,15.90
2022-12-03T00:52:27.325Z,16.57
2022-12-03T00:54:54.518Z,15.40
2022-12-03T00:57:21.838Z,15.63
2022-12-03T00:59:49.287Z,16.50
2022-12-03T01:02:16.630Z,16.57
2022-12-03T01:04:44.149Z,16.20
2022-12-03T01:07:11.462Z,16.60
2022-12-03T01:09:38.808Z,15.53
2022-12-03T01:12:06.064Z,14.77
2022-12-03T01:14:33.324Z,17.13
2022-12-03T01:17:00.435Z,15.73
2022-12-03T01:19:27.659Z,16.40
2022-12-03T01:21:55.947Z,16.33
2022-12-03T01:24:23.159Z,16.73
2022-12-03T01:26:50.303Z,16.07
2022-12-03T01:29:17.545Z,15.40
2022-12-03T01:32:03.442Z,16.10
2022-12-03T01:34:30.759Z,15.13
2022-12-03T01:36:57.886Z,16.40
2022-12-03T01:39:25.477Z,15.50
2022-12-03T01:41:52.902Z,16.00
2022-12-03T01:44:33.807Z,16.73
2022-12-03T01:47:03.152Z,14.03
2022-12-03T01:49:43.069Z,16.10
2022-12-03T01:52:12.957Z,16.03
2022-12-03T01:54:42.078Z,16.80
2022-12-03T01:57:20.302Z,15.93
2022-12-03T01:59:47.656Z,14.73
2022-12-03T02:02:21.383Z,16.97
2022-12-03T02:04:49.056Z,17.37
2022-12-03T02:07:19.091Z,14.80
2022-12-03T02:09:46.445Z,14.23
2022-12-03T02:12:14.308Z,15.40
2022-12-03T02:14:41.592Z,14.13
2022-12-03T02:17:08.799Z,15.33
2022-12-03T02:19:35.979Z,14.03
2022-12-03T02:22:14.842Z,14.67
2022-12-03T02:24:42.124Z,13.63
2022-12-03T02:27:09.279Z,14.57
2022-12-03T02:29:36.720Z,14.27
2022-12-03T02:32:03.990Z,13.27
2022-12-03T02:34:42.672Z,13.27
2022-12-03T02:37:13.765Z,12.90
2022-12-03T02:39:43.366Z,12.90
2022-12-03T02:42:29.021Z,13.73
2022-12-03T02:44:59.478Z,14.07
2022-12-03T02:47:31.212Z,12.77
2022-12-03T02:49:58.388Z,12.60
2022-12-03T02:52:25.595Z,12.23
2022-12-03T02:54:52.969Z,13.77
2022-12-03T02:57:20.502Z,12.27
2022-12-03T02:59:47.679Z,13.10
2022-12-03T03:02:15.303Z,12.27
2022-12-03T03:04:43.643Z,12.20
2022-12-03T03:07:10.788Z,11.73
2022-12-03T03:09:37.924Z,11.63
2022-12-03T03:12:05.356Z,11.43
2022-12-03T03:14:33.041Z,11.40
2022-12-03T03:17:00.145Z,13.43
2022-12-03T03:19:27.452Z,12.00
2022-12-03T03:21:54.594Z,12.50
2022-12-03T03:24:21.850Z,12.57
2022-12-03T03:26:49.675Z,11.87
2022-12-03T03:29:17.085Z,11.67
2022-12-03T03:31:44.352Z,11.13
2022-12-03T03:34:11.534Z,11.17
2022-12-03T03:36:39.143Z,10.77
2022-12-03T03:39:06.395Z,10.40
2022-12-03T03:41:33.588Z,11.97
2022-12-03T03:44:00.674Z,11.97
2022-12-03T03:46:28.113Z,11.07
2022-12-03T03:48:55.457Z,10.43
2022-12-03T03:51:22.750Z,11.23
2022-12-03T03:53:49.927Z,11.50
2022-12-03T03:56:17.688Z,11.80
2022-12-03T03:58:44.939Z,11.20
2022-12-03T04:01:12.805Z,10.13
2022-12-03T04:03:40.233Z,10.67
2022-12-03T04:06:07.807Z,10.30
2022-12-03T04:08:35.010Z,10.50
2022-12-03T04:11:20.708Z,11.23
2022-12-03T04:13:47.938Z,9.47
2022-12-03T04:16:15.065Z,10.00
2022-12-03T04:18:45.213Z,10.50
2022-12-03T04:21:35.578Z,10.13
2022-12-03T04:24:02.809Z,9.50
2022-12-03T04:26:48.706Z,10.23
2022-12-03T04:29:16.231Z,9.97
2022-12-03T04:32:02.390Z,10.73
2022-12-03T04:34:48.302Z,9.37
2022-12-03T04:37:15.652Z,8.47
2022-12-03T04:39:42.785Z,7.43
2022-12-03T04:42:10.008Z,8.03
2022-12-03T04:44:37.063Z,8.17
2022-12-03T04:47:12.437Z,8.83
2022-12-03T04:49:41.292Z,8.87
2022-12-03T04:52:08.644Z,9.07
2022-12-03T04:54:35.922Z,8.50
2022-12-03T04:57:03.858Z,9.07
2022-12-03T04:59:31.192Z,8.40
2022-12-03T05:01:58.815Z,8.50
2022-12-03T05:04:25.875Z,8.13
2022-12-03T05:06:53.029Z,8.27
2022-12-03T05:09:20.335Z,8.60
2022-12-03T05:11:47.416Z,8.37
2022-12-03T05:14:14.508Z,9.30
2022-12-03T05:16:42.258Z,6.97
2022-12-03T05:19:09.894Z,7.90
2022-12-03T05:21:37.287Z,9.07
2022-12-03T05:24:04.693Z,8.77
2022-12-03T05:26:31.804Z,9.23
2022-12-03T05:28:58.962Z,9.03
2022-12-03T05:31:26.447Z,8.33
2022-12-03T05:33:55.043Z,8.60
2022-12-03T05:36:22.330Z,8.90
2022-12-03T05:38:49.390Z,8.63
2022-12-03T05:41:35.230Z,8.37
2022-12-03T05:44:02.325Z,8.83
2022-12-03T05:46:29.540Z,9.43
2022-12-03T05:48:56.809Z,10.40
2022-12-03T05:51:23.980Z,9.13
2022-12-03T05:53:51.095Z,9.60
2022-12-03T05:56:18.261Z,9.50
2022-12-03T05:58:45.311Z,9.90
2022-12-03T06:01:12.299Z,10.20
2022-12-03T06:03:39.374Z,10.10
2022-12-03T06:06:06.862Z,10.00
2022-12-03T06:08:33.971Z,10.17
2022-12-03T06:11:00.959Z,9.23
2022-12-03T06:13:28.099Z,9.50
2022-12-03T06:15:55.173Z,9.70
2022-12-03T06:18:22.286Z,8.97
2022-12-03T06:20:49.698Z,9.10
2022-12-03T06:23:16.674Z,9.27
2022-12-03T06:25:43.716Z,9.60
2022-12-03T06:28:10.793Z,8.77
2022-12-03T06:30:37.906Z,9.83
2022-12-03T06:33:04.982Z,10.37
2022-12-03T06:35:32.027Z,9.47
2022-12-03T06:37:59.329Z,9.27
2022-12-03T06:40:26.509Z,15.23
2022-12-03T06:42:53.885Z,25.50
2022-12-03T06:45:21.025Z,56.23
2022-12-03T06:47:48.158Z,13.20
2022-12-03T06:50:15.424Z,9.37
2022-12-03T06:52:42.689Z,9.47
2022-12-03T06:55:10.239Z,8.23
2022-12-03T06:57:37.444Z,8.77
2022-12-03T07:00:06.234Z,9.53
2022-12-03T07:02:33.555Z,8.10
2022-12-03T07:05:00.741Z,8.63
2022-12-03T07:07:28.074Z,8.10
2022-12-03T07:09:55.309Z,7.83
2022-12-03T07:12:22.435Z,8.00
2022-12-03T07:14:49.592Z,10.80
2022-12-03T07:17:31.938Z,11.13
2022-12-03T07:19:59.044Z,11.93
2022-12-03T07:22:26.390Z,12.33
2022-12-03T07:24:53.903Z,8.27
2022-12-03T07:27:21.412Z,8.70
2022-12-03T07:29:48.537Z,7.97
2022-12-03T07:32:15.665Z,8.50
2022-12-03T07:34:42.678Z,8.23
2022-12-03T07:37:09.833Z,8.43
2022-12-03T07:39:37.032Z,9.67
2022-12-03T07:42:04.250Z,8.50
2022-12-03T07:44:34.253Z,9.70
2022-12-03T07:47:01.458Z,8.70
2022-12-03T07:49:28.704Z,8.60
2022-12-03T07:51:57.142Z,9.67
2022-12-03T07:54:24.717Z,11.10
2022-12-03T07:56:55.440Z,10.17
2022-12-03T07:59:25.342Z,9.60
2022-12-03T08:01:52.515Z,8.43
2022-12-03T08:04:21.267Z,8.10
2022-12-03T08:06:49.080Z,7.93
2022-12-03T08:09:16.597Z,7.97
2022-12-03T08:11:45.782Z,8.20
2022-12-03T08:14:17.626Z,7.93
2022-12-03T08:16:45.995Z,8.80
2022-12-03T08:19:17.213Z,8.17
2022-12-03T08:21:44.513Z,8.57
2022-12-03T08:24:11.826Z,7.70
2022-12-03T08:26:38.834Z,7.67
2022-12-03T08:29:10.529Z,7.77
2022-12-03T08:31:37.726Z,7.73
2022-12-03T08:34:21.221Z,8.60
2022-12-03T08:36:52.616Z,8.40
2022-12-03T08:39:35.746Z,8.67
2022-12-03T08:42:43.555Z,7.20
2022-12-03T08:45:41.313Z,7.17
2022-12-03T08:48:20.451Z,8.63
2022-12-03T08:50:47.740Z,11.73
2022-12-03T08:53:25.612Z,17.27
2022-12-03T08:55:53.520Z,28.27
2022-12-03T08:58:25.052Z,16.87
2022-12-03T09:01:11.047Z,8.97
2022-12-03T09:03:39.584Z,9.47
2022-12-03T09:06:07.092Z,21.60
2022-12-03T09:08:34.218Z,9.50
2022-12-03T09:11:01.649Z,10.87
2022-12-03T09:13:28.790Z,8.20
2022-12-03T09:15:55.991Z,9.30
2022-12-03T09:18:23.368Z,8.43
2022-12-03T09:20:50.723Z,9.20
2022-12-03T09:23:17.999Z,8.67
2022-12-03T09:25:45.151Z,7.87
2022-12-03T09:28:12.218Z,7.67
2022-12-03T09:30:39.509Z,7.80
2022-12-03T09:33:06.653Z,8.50
2022-12-03T09:35:34.027Z,8.87
2022-12-03T09:38:01.370Z,8.47
2022-12-03T09:40:29.140Z,7.77
2022-12-03T09:42:58.772Z,7.43
2022-12-03T09:45:25.954Z,8.53
2022-12-03T09:47:53.014Z,7.90
2022-12-03T09:50:22.030Z,8.70
2022-12-03T09:52:50.199Z,8.17
2022-12-03T09:55:19.679Z,8.40
2022-12-03T09:57:47.025Z,7.97
2022-12-03T10:00:19.400Z,8.33
2022-12-03T10:02:47.268Z,7.87
2022-12-03T10:05:14.650Z,8.40
2022-12-03T10:07:42.134Z,8.27
2022-12-03T10:10:21.480Z,9.13
2022-12-03T10:12:49.044Z,7.90
2022-12-03T10:15:17.704Z,7.83
2022-12-03T10:17:48.565Z,7.87
2022-12-03T10:20:17.037Z,8.80
2022-12-03T10:22:44.243Z,8.60
2022-12-03T10:25:15.980Z,8.53
2022-12-03T10:27:43.155Z,9.13
2022-12-03T10:30:20.307Z,9.87
2022-12-03T10:32:49.170Z,8.27
2022-12-03T10:35:27.380Z,7.97
2022-12-03T10:38:02.290Z,8.43
2022-12-03T10:40:33.871Z,8.07
2022-12-03T10:43:27.556Z,8.30
2022-12-03T10:46:04.660Z,8.83
2022-12-03T10:48:32.329Z,8.23
2022-12-03T10:51:21.309Z,8.10
2022-12-03T10:53:49.120Z,8.60
2022-12-03T10:56:21.714Z,7.40
2022-12-03T10:58:48.912Z,8.70
2022-12-03T11:01:22.204Z,8.90
2022-12-03T11:03:49.591Z,8.10
2022-12-03T11:06:21.077Z,8.83
2022-12-03T11:08:57.769Z,7.73
2022-12-03T11:11:28.364Z,8.50
2022-12-03T11:13:59.756Z,8.53
2022-12-03T11:16:41.975Z,7.50
2022-12-03T11:19:19.306Z,8.13
2022-12-03T11:22:05.028Z,8.10
2022-12-03T11:24:33.428Z,8.00
2022-12-03T11:27:00.459Z,7.23
2022-12-03T11:29:50.628Z,8.03
2022-12-03T11:32:39.887Z,7.80
2022-12-03T11:35:26.536Z,8.20
2022-12-03T11:37:53.631Z,8.40
2022-12-03T11:40:25.879Z,9.10
2022-12-03T11:42:53.245Z,7.73
2022-12-03T11:45:30.540Z,7.73
2022-12-03T11:48:00.592Z,7.40
2022-12-03T11:50:33.585Z,7.63
2022-12-03T11:53:16.730Z,8.93
2022-12-03T11:55:49.321Z,8.23
2022-12-03T11:58:25.385Z,8.37
2022-12-03T12:00:56.999Z,7.50
2022-12-03T12:03:33.180Z,8.73
2022-12-03T12:06:07.868Z,8.30
2022-12-03T12:08:36.906Z,10.07
2022-12-03T12:11:04.139Z,8.43
2022-12-03T12:13:31.433Z,8.23
2022-12-03T12:16:03.028Z,7.77
2022-12-03T12:18:43.682Z,7.50
2022-12-03T12:21:48.272Z,8.40
2022-12-03T12:24:40.192Z,7.87
2022-12-03T12:27:09.100Z,7.90
2022-12-03T12:29:37.042Z,7.83
2022-12-03T12:32:10.792Z,7.67
2022-12-03T12:34:41.529Z,8.00
2022-12-03T12:37:14.609Z,7.07
2022-12-03T12:39:41.870Z,7.37
2022-12-03T12:42:25.357Z,7.50
2022-12-03T12:44:52.460Z,7.27
2022-12-03T12:47:19.661Z,7.50
2022-12-03T12:49:51.595Z,8.13
2022-12-03T12:52:19.186Z,8.50
2022-12-03T12:54:46.538Z,7.73
2022-12-03T12:57:15.858Z,7.73
2022-12-03T12:59:43.037Z,6.40
2022-12-03T13:02:30.240Z,7.27
2022-12-03T13:04:57.891Z,7.03
2022-12-03T13:07:26.513Z,8.47
2022-12-03T13:09:56.014Z,7.20
2022-12-03T13:12:24.069Z,7.17
2022-12-03T13:14:52.411Z,8.23
2022-12-03T13:17:24.491Z,7.63
2022-12-03T13:20:00.537Z,7.83
2022-12-03T13:22:32.560Z,7.77
2022-12-03T13:25:00.195Z,7.20
2022-12-03T13:27:31.240Z,7.43
2022-12-03T13:30:02.960Z,7.70
2022-12-03T13:32:34.949Z,7.37
2022-12-03T13:35:17.670Z,7.40
2022-12-03T13:37:44.789Z,7.63
2022-12-03T13:40:28.943Z,7.17
2022-12-03T13:42:56.322Z,7.17
2022-12-03T13:45:26.482Z,7.13
2022-12-03T13:48:01.613Z,8.50
2022-12-03T13:50:35.779Z,7.70
2022-12-03T13:53:06.183Z,8.17
2022-12-03T13:55:33.572Z,6.97
2022-12-03T13:58:00.663Z,7.97
2022-12-03T14:00:28.032Z,7.50
2022-12-03T14:02:55.206Z,7.73
2022-12-03T14:05:22.511Z,6.57
2022-12-03T14:07:49.958Z,7.17
2022-12-03T14:10:17.250Z,7.63
2022-12-03T14:12:44.330Z,7.87
2022-12-03T14:15:11.745Z,7.03
2022-12-03T14:17:38.870Z,7.33
2022-12-03T14:20:07.269Z,6.87
2022-12-03T14:22:38.129Z,6.43
2022-12-03T14:25:06.715Z,7.93
2022-12-03T14:27:33.922Z,8.63
2022-12-03T14:30:01.161Z,8.00
2022-12-03T14:32:28.500Z,26.97
2022-12-03T14:34:55.629Z,20.23
2022-12-03T14:37:22.791Z,100.70
2022-12-03T14:39:50.116Z,123.07
2022-12-03T14:42:18.676Z,46.10
2022-12-03T14:44:49.925Z,35.73
2022-12-03T14:47:18.707Z,14.77
2022-12-03T14:49:46.047Z,21.03
2022-12-03T14:52:13.236Z,11.77
2022-12-03T14:54:42.807Z,29.03
2022-12-03T14:57:11.568Z,11.57
2022-12-03T14:59:40.808Z,8.83
2022-12-03T15:02:08.521Z,9.53
2022-12-03T15:04:35.716Z,13.77
2022-12-03T15:07:02.968Z,8.63
2022-12-03T15:09:30.085Z,8.47
2022-12-03T15:11:57.163Z,8.43
2022-12-03T15:14:24.361Z,7.67
2022-12-03T15:16:51.673Z,8.73
2022-12-03T15:19:18.885Z,8.90
2022-12-03T15:21:46.492Z,7.73
2022-12-03T15:24:13.902Z,7.93
2022-12-03T15:26:41.072Z,8.77
2022-12-03T15:29:08.356Z,9.40
2022-12-03T15:31:35.536Z,9.70
2022-12-03T15:34:02.783Z,9.13
2022-12-03T15:36:30.057Z,8.77
2022-12-03T15:38:57.930Z,9.27
2022-12-03T15:41:29.198Z,8.57
2022-12-03T15:44:02.358Z,13.87
2022-12-03T15:46:31.399Z,9.03
2022-12-03T15:48:58.662Z,8.90
2022-12-03T15:51:25.884Z,8.97
2022-12-03T15:53:53.250Z,8.07
2022-12-03T15:56:20.456Z,8.43
2022-12-03T15:58:47.760Z,8.13
2022-12-03T16:01:15.247Z,8.70
2022-12-03T16:03:42.397Z,8.43
2022-12-03T16:06:09.561Z,7.83
2022-12-03T16:08:37.126Z,8.33
2022-12-03T16:11:04.291Z,9.13
2022-12-03T16:13:31.445Z,7.83
2022-12-03T16:15:58.613Z,7.20
2022-12-03T16:18:25.862Z,7.80
2022-12-03T16:20:53.459Z,8.33
2022-12-03T16:23:20.722Z,7.50
2022-12-03T16:25:48.122Z,6.97
2022-12-03T16:28:15.496Z,16.13
2022-12-03T16:30:42.982Z,8.00
2022-12-03T16:33:10.342Z,11.67
2022-12-03T16:35:37.774Z,12.70
2022-12-03T16:38:05.028Z,23.03
2022-12-03T16:40:32.487Z,56.57
2022-12-03T16:42:59.904Z,12.83
2022-12-03T16:45:30.211Z,8.53
2022-12-03T16:47:57.479Z,8.17
2022-12-03T16:50:29.784Z,9.27
2022-12-03T16:52:58.229Z,9.67
2022-12-03T16:55:25.860Z,10.07
2022-12-03T16:57:53.191Z,19.23
2022-12-03T17:00:22.103Z,13.43
2022-12-03T17:02:49.698Z,9.97
2022-12-03T17:05:17.118Z,14.63
2022-12-03T17:07:44.443Z,23.13
2022-12-03T17:10:12.064Z,9.27
2022-12-03T17:13:07.791Z,10.93
2022-12-03T17:15:27.141Z,9.10
2022-12-03T17:17:54.691Z,9.30
2022-12-03T17:20:22.129Z,8.47
2022-12-03T17:22:49.856Z,10.63
2022-12-03T17:25:17.204Z,11.37
2022-12-03T17:27:45.541Z,15.77
2022-12-03T17:30:13.271Z,10.33
2022-12-03T17:32:40.676Z,9.30
2022-12-03T17:35:08.568Z,9.13
2022-12-03T17:37:36.252Z,10.40
2022-12-03T17:40:05.331Z,22.37
2022-12-03T17:42:32.585Z,9.80
2022-12-03T17:44:59.846Z,22.40
2022-12-03T17:47:27.274Z,12.10
2022-12-03T17:49:54.871Z,39.80
2022-12-03T17:52:22.528Z,12.03
2022-12-03T17:55:09.666Z,50.07
2022-12-03T17:57:37.120Z,11.27
2022-12-03T18:00:05.155Z,10.40
2022-12-03T18:02:32.877Z,11.17
2022-12-03T18:05:00.312Z,8.77
2022-12-03T18:07:27.547Z,8.97
2022-12-03T18:09:55.346Z,10.43
2022-12-03T18:12:23.033Z,9.33
2022-12-03T18:14:50.369Z,8.93
2022-12-03T18:17:17.670Z,11.57
2022-12-03T18:19:45.213Z,12.30
2022-12-03T18:22:13.165Z,8.97
2022-12-03T18:24:40.636Z,6.90
2022-12-03T18:27:08.005Z,11.60
2022-12-03T18:29:35.349Z,9.47
2022-12-03T18:32:02.968Z,8.40
2022-12-03T18:34:30.369Z,8.10
2022-12-03T18:36:57.840Z,21.53
2022-12-03T18:39:30.688Z,8.40
2022-12-03T18:41:58.181Z,9.57
2022-12-03T18:44:25.463Z,9.13
2022-12-03T18:46:54.134Z,9.03
2022-12-03T18:49:22.396Z,8.57
2022-12-03T18:51:53.329Z,9.43
2022-12-03T18:54:24.937Z,10.33
2022-12-03T18:56:52.306Z,10.23
2022-12-03T18:59:19.570Z,10.00
2022-12-03T19:01:46.957Z,10.17
2022-12-03T19:04:14.365Z,9.97
2022-12-03T19:06:41.783Z,11.73
2022-12-03T19:09:09.486Z,10.43
2022-12-03T19:11:36.828Z,14.27
2022-12-03T19:14:04.178Z,10.93
2022-12-03T19:16:31.835Z,13.43
2022-12-03T19:18:59.331Z,12.30
2022-12-03T19:21:32.172Z,9.93
2022-12-03T19:24:24.151Z,16.80
2022-12-03T19:26:48.791Z,9.30
2022-12-03T19:29:16.143Z,7.70
2022-12-03T19:31:43.621Z,12.30
2022-12-03T19:34:11.218Z,23.00
2022-12-03T19:36:38.678Z,19.70
2022-12-03T19:39:05.946Z,22.30
2022-12-03T19:41:33.445Z,22.80
2022-12-03T19:44:01.715Z,16.57
2022-12-03T19:46:31.443Z,15.00
2022-12-03T19:48:58.768Z,8.43
2022-12-03T19:51:34.623Z,9.53
2022-12-03T19:54:06.273Z,10.47
2022-12-03T19:56:33.870Z,8.37
2022-12-03T19:59:01.507Z,9.10
2022-12-03T20:01:30.559Z,11.20
2022-12-03T20:03:59.373Z,11.17
2022-12-03T20:06:28.758Z,11.07
2022-12-03T20:08:57.251Z,8.80
2022-12-03T20:11:25.996Z,11.70
2022-12-03T20:13:57.427Z,8.83
2022-12-03T20:16:25.263Z,10.43
2022-12-03T20:18:55.726Z,11.17
2022-12-03T20:21:22.982Z,12.90
2022-12-03T20:23:50.363Z,9.33
2022-12-03T20:26:19.356Z,9.60
2022-12-03T20:28:48.221Z,9.10
2022-12-03T20:31:17.696Z,10.10
2022-12-03T20:33:46.888Z,7.97
2022-12-03T20:36:15.032Z,13.63
2022-12-03T20:38:42.661Z,8.07
2022-12-03T20:41:11.902Z,8.63
2022-12-03T20:43:39.164Z,9.17
2022-12-03T20:46:10.709Z,9.77
2022-12-03T20:48:38.276Z,8.90
2022-12-03T20:51:15.548Z,8.27
2022-12-03T20:53:43.395Z,8.40
2022-12-03T20:56:10.733Z,10.67
2022-12-03T20:58:38.001Z,9.47
2022-12-03T21:01:15.983Z,10.97
2022-12-03T21:03:44.321Z,10.20
2022-12-03T21:06:12.212Z,9.90
2022-12-03T21:08:41.997Z,9.63
2022-12-03T21:11:14.935Z,9.47
2022-12-03T21:13:44.181Z,9.57
2022-12-03T21:16:17.498Z,8.17
2022-12-03T21:18:45.199Z,9.70
2022-12-03T21:21:13.182Z,8.00
2022-12-03T21:23:40.721Z,7.13
2022-12-03T21:26:10.542Z,9.50
2022-12-03T21:28:41.424Z,10.87
2022-12-03T21:31:10.355Z,10.83
2022-12-03T21:33:37.765Z,8.93
2022-12-03T21:36:05.662Z,9.70
2022-12-03T21:38:33.384Z,7.97
2022-12-03T21:41:01.152Z,8.43
2022-12-03T21:43:28.483Z,8.00
2022-12-03T21:45:55.947Z,8.30
2022-12-03T21:48:23.298Z,7.87
2022-12-03T21:51:04.570Z,8.43
2022-12-03T21:53:32.530Z,8.57
2022-12-03T21:56:00.396Z,9.70
2022-12-03T21:58:28.004Z,7.80
2022-12-03T22:00:55.369Z,6.53
2022-12-03T22:03:22.612Z,7.23
2022-12-03T22:05:50.651Z,7.93
2022-12-03T22:08:18.597Z,9.30
2022-12-03T22:10:45.923Z,10.90
2022-12-03T22:13:13.451Z,8.60
2022-12-03T22:15:40.796Z,8.43
2022-12-03T22:18:08.134Z,8.10
2022-12-03T22:20:35.707Z,9.83
2022-12-03T22:23:02.960Z,9.53
2022-12-03T22:25:30.808Z,9.10
2022-12-03T22:27:58.110Z,7.00
2022-12-03T22:30:25.725Z,8.10
2022-12-03T22:32:52.995Z,8.27
2022-12-03T22:35:20.229Z,6.93
2022-12-03T22:37:47.569Z,7.00
2022-12-03T22:40:14.864Z,11.10
2022-12-03T22:42:46.359Z,10.27
2022-12-03T22:45:17.644Z,6.43
2022-12-03T22:47:44.898Z,7.10
2022-12-03T22:50:12.581Z,6.50
2022-12-03T22:52:39.746Z,6.17
2022-12-03T22:55:07.216Z,6.10
2022-12-03T22:57:34.527Z,6.70
2022-12-03T23:00:01.700Z,7.20
2022-12-03T23:02:28.970Z,6.60
2022-12-03T23:04:56.328Z,6.30
2022-12-03T23:07:23.710Z,6.23
2022-12-03T23:09:51.067Z,6.07
2022-12-03T23:12:18.143Z,5.03
2022-12-03T23:14:45.368Z,5.83
2022-12-03T23:17:12.749Z,5.00
2022-12-03T23:19:39.857Z,6.37
2022-12-03T23:22:07.144Z,5.30
2022-12-03T23:24:34.585Z,5.53
2022-12-03T23:27:01.720Z,5.30
2022-12-03T23:29:28.943Z,5.37
2022-12-03T23:31:57.395Z,5.20
2022-12-03T23:34:24.631Z,5.57
2022-12-03T23:36:52.134Z,5.37
2022-12-03T23:39:19.300Z,5.70
2022-12-03T23:41:46.490Z,5.93
2022-12-03T23:44:13.642Z,5.20
2022-12-03T23:46:41.254Z,4.60
2022-12-03T23:49:08.783Z,5.10
2022-12-03T23:51:35.904Z,5.40
2022-12-03T23:54:03.115Z,5.17
2022-12-03T23:56:30.908Z,5.17
2022-12-03T23:58:58.179Z,5.53
